Newington, Connecticut
Current Conditions -  °F | °C
As of 3:53 PM on Saturday 20 Dec 2014 (Local Time) from KHFD Reporting Station
Overcast Overcast  
Wind Chill: -4°   Ceiling: 3700
Heat Index: -1°   Visibility: 10mi
Dew Point: -7°   Wind: 6mph
Humidity: 66%   Direction: NA
Pressure: 30.27"   Gusts: NA
Location:  41.7°N, 72.73°W
Report Text: KHFD 202053Z AUTO VRB05KT 10SM OVC037 M01/M07 A3027 RMK AO2 SLP249 T10111067 58001
Loading
Personal Weather Stations






























Interactive Weather Map New forecast layout! Learn more

10-Day Weather Forecast

Advertisements
Track Severe Weather on mobile